createdAt,value
2023-05-20T00:00:30.472Z,21.33
2023-05-20T00:02:57.878Z,21.33
2023-05-20T00:05:24.966Z,20.60
2023-05-20T00:07:51.930Z,21.07
2023-05-20T00:10:18.930Z,21.65
2023-05-20T00:12:45.895Z,22.10
2023-05-20T00:15:12.992Z,19.85
2023-05-20T00:17:40.046Z,20.95
2023-05-20T00:20:08.483Z,20.73
2023-05-20T00:22:35.463Z,20.98
2023-05-20T00:25:02.489Z,21.70
2023-05-20T00:27:29.576Z,21.08
2023-05-20T00:29:57.124Z,21.30
2023-05-20T00:32:25.392Z,21.77
2023-05-20T00:35:00.023Z,21.42
2023-05-20T00:37:27.545Z,21.05
2023-05-20T00:39:54.655Z,21.23
2023-05-20T00:42:22.814Z,21.33
2023-05-20T00:44:49.962Z,23.13
2023-05-20T00:47:21.597Z,21.08
2023-05-20T00:49:51.080Z,22.05
2023-05-20T00:52:19.486Z,22.15
2023-05-20T00:54:46.786Z,21.65
2023-05-20T00:57:14.521Z,24.07
2023-05-20T00:59:44.078Z,22.35
2023-05-20T01:02:11.923Z,21.58
2023-05-20T01:04:39.092Z,21.60
2023-05-20T01:07:07.354Z,22.70
2023-05-20T01:09:34.505Z,22.77
2023-05-20T01:12:10.577Z,23.98
2023-05-20T01:14:45.074Z,22.88
2023-05-20T01:17:13.346Z,21.95
2023-05-20T01:19:44.889Z,21.13
2023-05-20T01:22:14.090Z,21.00
2023-05-20T01:24:53.585Z,21.80
2023-05-20T01:27:25.935Z,20.83
2023-05-20T01:29:53.490Z,19.35
2023-05-20T01:32:30.825Z,20.35
2023-05-20T01:34:59.924Z,20.90
2023-05-20T01:37:28.966Z,19.88
2023-05-20T01:39:57.021Z,19.27
2023-05-20T01:42:25.536Z,18.98
2023-05-20T01:44:52.843Z,20.33
2023-05-20T01:47:19.896Z,19.73
2023-05-20T01:49:47.838Z,20.02
2023-05-20T01:52:15.197Z,20.00
2023-05-20T01:54:42.254Z,19.98
2023-05-20T01:57:09.908Z,20.73
2023-05-20T01:59:37.062Z,20.40
2023-05-20T02:02:04.537Z,21.33
2023-05-20T02:04:31.620Z,20.20
2023-05-20T02:06:58.632Z,20.52
2023-05-20T02:09:25.680Z,19.25
2023-05-20T02:11:52.933Z,20.43
2023-05-20T02:14:19.936Z,20.17
2023-05-20T02:16:48.029Z,20.00
2023-05-20T02:19:19.958Z,19.90
2023-05-20T02:21:49.066Z,19.55
2023-05-20T02:24:17.116Z,19.30
2023-05-20T02:26:46.938Z,21.23
2023-05-20T02:29:13.997Z,19.10
2023-05-20T02:31:40.942Z,19.33
2023-05-20T02:34:08.193Z,18.33
2023-05-20T02:36:35.196Z,19.37
2023-05-20T02:39:02.561Z,18.45
2023-05-20T02:41:31.473Z,19.33
2023-05-20T02:43:58.413Z,18.35
2023-05-20T02:46:28.576Z,19.02
2023-05-20T02:48:55.739Z,19.03
2023-05-20T02:51:24.278Z,17.85
2023-05-20T02:53:51.328Z,19.67
2023-05-20T02:56:21.511Z,18.52
2023-05-20T02:58:48.715Z,20.85
2023-05-20T03:01:15.838Z,21.40
2023-05-20T03:03:42.990Z,19.88
2023-05-20T03:06:10.055Z,19.55
2023-05-20T03:08:39.713Z,21.98
2023-05-20T03:11:07.055Z,22.88
2023-05-20T03:13:35.056Z,20.33
2023-05-20T03:16:02.288Z,20.27
2023-05-20T03:18:29.662Z,22.20
2023-05-20T03:20:56.905Z,22.15
2023-05-20T03:23:24.330Z,21.00
2023-05-20T03:25:51.701Z,19.83
2023-05-20T03:28:18.745Z,20.27
2023-05-20T03:30:46.238Z,20.00
2023-05-20T03:33:13.481Z,19.58
2023-05-20T03:35:41.266Z,20.48
2023-05-20T03:38:08.318Z,20.43
2023-05-20T03:40:37.345Z,20.08
2023-05-20T03:43:05.770Z,19.38
2023-05-20T03:45:34.650Z,20.48
2023-05-20T03:48:07.350Z,18.45
2023-05-20T03:50:35.764Z,18.90
2023-05-20T03:53:02.885Z,19.67
2023-05-20T03:55:37.007Z,18.95
2023-05-20T03:58:04.368Z,19.77
2023-05-20T04:00:32.564Z,19.80
2023-05-20T04:03:00.646Z,18.40
2023-05-20T04:05:27.860Z,18.70
2023-05-20T04:07:57.518Z,18.50
2023-05-20T04:10:25.536Z,18.10
2023-05-20T04:12:53.940Z,18.45
2023-05-20T04:15:23.901Z,18.17
2023-05-20T04:17:56.789Z,17.42
2023-05-20T04:20:24.512Z,19.63
2023-05-20T04:22:55.382Z,17.67
2023-05-20T04:25:22.986Z,18.27
2023-05-20T04:27:51.076Z,18.00
2023-05-20T04:30:18.614Z,17.05
2023-05-20T04:32:45.818Z,18.00
2023-05-20T04:35:13.888Z,18.92
2023-05-20T04:37:47.734Z,19.33
2023-05-20T04:40:15.595Z,14.93
2023-05-20T04:42:43.700Z,16.73
2023-05-20T04:45:12.512Z,16.70
2023-05-20T04:47:41.957Z,17.90
2023-05-20T04:50:16.169Z,18.80
2023-05-20T04:52:43.811Z,18.37
2023-05-20T04:55:12.327Z,19.63
2023-05-20T04:57:42.264Z,18.52
2023-05-20T05:00:12.433Z,18.98
2023-05-20T05:02:40.418Z,16.92
2023-05-20T05:05:07.932Z,18.50
2023-05-20T05:07:35.078Z,16.95
2023-05-20T05:10:02.155Z,16.88
2023-05-20T05:12:31.038Z,17.60
2023-05-20T05:14:59.319Z,16.92
2023-05-20T05:17:28.938Z,17.53
2023-05-20T05:19:57.597Z,16.30
2023-05-20T05:22:26.092Z,16.92
2023-05-20T05:24:53.225Z,15.98
2023-05-20T05:27:22.947Z,15.75
2023-05-20T05:29:50.321Z,17.77
2023-05-20T05:32:17.872Z,16.65
2023-05-20T05:34:47.311Z,16.60
2023-05-20T05:37:14.444Z,15.45
2023-05-20T05:39:42.506Z,15.30
2023-05-20T05:42:09.534Z,15.93
2023-05-20T05:44:36.658Z,16.45
2023-05-20T05:47:06.893Z,16.17
2023-05-20T05:49:34.367Z,16.50
2023-05-20T05:52:01.413Z,14.65
2023-05-20T05:54:29.314Z,15.50
2023-05-20T05:56:56.805Z,16.02
2023-05-20T05:59:25.198Z,15.27
2023-05-20T06:01:53.313Z,16.33
2023-05-20T06:04:20.713Z,16.75
2023-05-20T06:06:48.499Z,16.30
2023-05-20T06:09:16.519Z,14.85
2023-05-20T06:11:44.484Z,16.77
2023-05-20T06:14:11.506Z,16.58
2023-05-20T06:16:39.356Z,15.80
2023-05-20T06:19:09.483Z,16.23
2023-05-20T06:21:37.032Z,15.00
2023-05-20T06:24:07.448Z,14.68
2023-05-20T06:26:37.426Z,15.48
2023-05-20T06:29:05.566Z,16.10
2023-05-20T06:31:32.913Z,15.70
2023-05-20T06:33:59.971Z,14.38
2023-05-20T06:36:28.790Z,15.07
2023-05-20T06:38:55.838Z,14.77
2023-05-20T06:41:22.871Z,15.40
2023-05-20T06:43:53.420Z,14.40
2023-05-20T06:46:39.288Z,14.77
2023-05-20T06:49:11.062Z,14.82
2023-05-20T06:51:38.215Z,15.20
2023-05-20T06:54:05.258Z,14.20
2023-05-20T06:56:32.450Z,12.90
2023-05-20T06:58:59.819Z,12.90
2023-05-20T07:01:27.593Z,14.63
2023-05-20T07:03:55.748Z,15.27
2023-05-20T07:06:23.209Z,14.65
2023-05-20T07:08:50.278Z,14.23
2023-05-20T07:11:17.728Z,14.52
2023-05-20T07:13:45.064Z,13.32
2023-05-20T07:16:12.138Z,13.30
2023-05-20T07:18:42.996Z,13.80
2023-05-20T07:21:09.954Z,14.37
2023-05-20T07:24:06.333Z,12.25
2023-05-20T07:26:36.661Z,13.18
2023-05-20T07:29:05.019Z,14.45
2023-05-20T07:31:32.584Z,14.32
2023-05-20T07:34:00.214Z,14.40
2023-05-20T07:36:28.115Z,13.07
2023-05-20T07:39:03.072Z,12.90
2023-05-20T07:41:34.325Z,13.50
2023-05-20T07:44:04.527Z,13.27
2023-05-20T07:46:33.271Z,13.40
2023-05-20T07:49:00.588Z,14.57
2023-05-20T07:51:27.636Z,14.07
2023-05-20T07:53:54.713Z,13.50
2023-05-20T07:56:22.160Z,13.98
2023-05-20T07:59:00.804Z,13.90
2023-05-20T08:01:31.906Z,13.80
2023-05-20T08:03:59.869Z,13.95
2023-05-20T08:06:29.418Z,13.43
2023-05-20T08:08:57.747Z,12.57
2023-05-20T08:11:31.767Z,15.73
2023-05-20T08:13:59.295Z,13.30
2023-05-20T08:16:30.713Z,13.05
2023-05-20T08:18:58.156Z,13.63
2023-05-20T08:21:25.338Z,13.02
2023-05-20T08:23:52.401Z,13.07
2023-05-20T08:26:19.487Z,13.15
2023-05-20T08:28:47.013Z,13.30
2023-05-20T08:31:15.568Z,12.52
2023-05-20T08:33:42.590Z,13.02
2023-05-20T08:36:11.143Z,13.50
2023-05-20T08:38:39.100Z,13.77
2023-05-20T08:41:07.240Z,13.50
2023-05-20T08:43:35.819Z,13.38
2023-05-20T08:46:06.533Z,12.73
2023-05-20T08:48:36.339Z,14.00
2023-05-20T08:51:04.510Z,13.27
2023-05-20T08:53:31.634Z,13.90
2023-05-20T08:56:03.866Z,12.80
2023-05-20T08:58:31.414Z,13.25
2023-05-20T09:00:59.059Z,13.00
2023-05-20T09:03:26.436Z,13.40
2023-05-20T09:05:54.441Z,12.95
2023-05-20T09:08:29.085Z,12.52
2023-05-20T09:10:56.154Z,12.65
2023-05-20T09:13:24.388Z,14.03
2023-05-20T09:15:52.154Z,11.82
2023-05-20T09:18:19.356Z,14.18
2023-05-20T09:20:50.979Z,12.55
2023-05-20T09:23:21.927Z,12.98
2023-05-20T09:25:53.053Z,13.63
2023-05-20T09:28:25.259Z,13.45
2023-05-20T09:31:00.828Z,12.88
2023-05-20T09:33:32.335Z,12.80
2023-05-20T09:36:08.493Z,12.60
2023-05-20T09:38:39.559Z,13.03
2023-05-20T09:41:08.900Z,14.18
2023-05-20T09:43:37.395Z,12.90
2023-05-20T09:46:05.638Z,12.27
2023-05-20T09:48:36.230Z,13.30
2023-05-20T09:51:04.627Z,12.50
2023-05-20T09:53:31.726Z,11.77
2023-05-20T09:55:59.368Z,11.75
2023-05-20T09:58:27.278Z,12.23
2023-05-20T10:00:54.414Z,13.20
2023-05-20T10:03:25.281Z,11.87
2023-05-20T10:06:20.729Z,12.80
2023-05-20T10:08:50.848Z,12.57
2023-05-20T10:11:30.281Z,11.32
2023-05-20T10:14:09.949Z,12.10
2023-05-20T10:16:54.442Z,11.33
2023-05-20T10:19:34.100Z,12.48
2023-05-20T10:22:06.920Z,11.77
2023-05-20T10:24:40.938Z,10.80
2023-05-20T10:27:13.348Z,10.38
2023-05-20T10:29:53.913Z,9.97
2023-05-20T10:32:29.005Z,10.48
2023-05-20T10:35:05.081Z,9.77
2023-05-20T10:37:43.697Z,8.85
2023-05-20T10:40:13.080Z,9.73
2023-05-20T10:42:41.118Z,8.00
2023-05-20T10:45:09.388Z,8.50
2023-05-20T10:47:37.152Z,9.05
2023-05-20T10:50:06.038Z,8.98
2023-05-20T10:52:42.187Z,9.38
2023-05-20T10:55:19.705Z,8.60
2023-05-20T10:57:46.666Z,8.93
2023-05-20T11:00:15.405Z,9.30
2023-05-20T11:02:43.126Z,9.43
2023-05-20T11:05:12.835Z,9.32
2023-05-20T11:07:39.918Z,8.70
2023-05-20T11:10:11.123Z,9.50
2023-05-20T11:12:39.472Z,9.32
2023-05-20T11:15:06.877Z,9.85
2023-05-20T11:17:33.806Z,9.63
2023-05-20T11:20:01.133Z,10.50
2023-05-20T11:22:28.179Z,9.68
2023-05-20T11:24:55.245Z,10.20
2023-05-20T11:27:22.454Z,11.32
2023-05-20T11:29:50.943Z,11.02
2023-05-20T11:32:21.360Z,10.80
2023-05-20T11:34:52.380Z,11.00
2023-05-20T11:37:20.216Z,11.00
2023-05-20T11:39:47.783Z,11.68
2023-05-20T11:42:16.601Z,11.60
2023-05-20T11:44:45.283Z,10.83
2023-05-20T11:47:12.388Z,11.48
2023-05-20T11:49:42.480Z,11.63
2023-05-20T11:52:11.128Z,11.15
2023-05-20T11:54:38.166Z,12.15
2023-05-20T11:57:07.126Z,11.90
2023-05-20T11:59:35.138Z,12.38
2023-05-20T12:02:05.391Z,13.32
2023-05-20T12:04:32.736Z,13.13
2023-05-20T12:06:59.867Z,12.68
2023-05-20T12:09:27.276Z,12.97
2023-05-20T12:11:58.883Z,12.43
2023-05-20T12:14:26.005Z,12.43
2023-05-20T12:16:53.792Z,13.18
2023-05-20T12:19:24.087Z,12.50
2023-05-20T12:21:52.823Z,12.37
2023-05-20T12:24:20.050Z,12.38
2023-05-20T12:26:47.155Z,12.63
2023-05-20T12:29:14.146Z,11.95
2023-05-20T12:31:41.314Z,11.98
2023-05-20T12:34:08.324Z,12.73
2023-05-20T12:36:35.480Z,12.05
2023-05-20T12:39:04.055Z,12.95
2023-05-20T12:41:42.669Z,14.20
2023-05-20T12:44:10.440Z,13.98
2023-05-20T12:46:40.343Z,14.57
2023-05-20T12:49:07.922Z,13.77
2023-05-20T12:51:37.946Z,14.82
2023-05-20T12:54:11.397Z,15.52
2023-05-20T12:56:39.744Z,16.15
2023-05-20T12:59:07.817Z,14.13
2023-05-20T13:01:36.792Z,14.95
2023-05-20T13:04:07.580Z,15.88
2023-05-20T13:06:35.440Z,15.75
2023-05-20T13:09:05.257Z,15.95
2023-05-20T13:11:35.680Z,15.60
2023-05-20T13:14:06.315Z,14.88
2023-05-20T13:16:35.567Z,15.38
2023-05-20T13:19:06.660Z,14.68
2023-05-20T13:21:36.810Z,15.52
2023-05-20T13:24:17.179Z,15.60
2023-05-20T13:27:57.573Z,16.25
2023-05-20T13:30:17.386Z,16.88
2023-05-20T13:32:51.979Z,17.08
2023-05-20T13:35:27.809Z,17.42
2023-05-20T13:38:00.489Z,16.50
2023-05-20T13:40:43.718Z,17.27
2023-05-20T13:43:18.176Z,19.35
2023-05-20T13:46:13.341Z,18.30
2023-05-20T13:48:41.951Z,17.75
2023-05-20T13:51:09.299Z,17.00
2023-05-20T13:53:40.218Z,18.83
2023-05-20T13:59:38.903Z,18.48
2023-05-20T14:02:14.011Z,18.77
2023-05-20T14:04:53.853Z,18.77
2023-05-20T14:05:21.617Z,19.58
2023-05-20T14:07:33.895Z,19.95
2023-05-20T14:10:20.537Z,20.00
2023-05-20T14:13:25.258Z,19.45
2023-05-20T14:16:39.001Z,19.30
2023-05-20T14:19:54.214Z,18.93
2023-05-20T14:26:30.994Z,17.92
2023-05-20T14:29:22.076Z,17.08
2023-05-20T14:40:46.462Z,17.95
2023-05-20T14:46:57.074Z,17.70
2023-05-20T14:49:31.073Z,17.85
2023-05-20T14:52:16.143Z,16.67
2023-05-20T14:55:14.831Z,16.05
2023-05-20T15:03:33.954Z,16.92
2023-05-20T15:09:17.593Z,16.33
2023-05-20T15:12:21.239Z,16.63
2023-05-20T15:30:23.137Z,17.52
2023-05-20T15:32:56.869Z,17.98
2023-05-20T15:35:24.502Z,16.33
2023-05-20T15:38:11.375Z,16.52
2023-05-20T15:40:39.588Z,17.60
2023-05-20T15:43:07.503Z,16.95
2023-05-20T15:45:34.844Z,17.23
2023-05-20T15:48:04.699Z,17.23
2023-05-20T15:50:32.697Z,18.00
2023-05-20T15:53:02.856Z,16.30
2023-05-20T15:55:30.256Z,18.38
2023-05-20T15:58:00.091Z,18.40
2023-05-20T16:00:28.474Z,17.02
2023-05-20T16:02:59.336Z,16.85
2023-05-20T16:05:29.857Z,17.00
2023-05-20T16:07:57.627Z,17.77
2023-05-20T16:10:26.184Z,17.42
2023-05-20T16:12:54.880Z,17.63
2023-05-20T16:15:22.306Z,17.60
2023-05-20T16:17:49.439Z,17.30
2023-05-20T16:20:16.799Z,17.45
2023-05-20T16:22:54.670Z,16.85
2023-05-20T16:25:22.200Z,16.50
2023-05-20T16:27:49.520Z,17.65
2023-05-20T16:30:16.908Z,17.43
2023-05-20T16:32:44.295Z,17.52
2023-05-20T16:35:12.182Z,17.65
2023-05-20T16:37:40.364Z,16.92
2023-05-20T16:40:09.811Z,18.08
2023-05-20T16:42:37.899Z,17.17
2023-05-20T16:45:06.130Z,17.38
2023-05-20T16:47:37.172Z,17.30
2023-05-20T16:50:07.422Z,43.63
2023-05-20T16:52:35.876Z,27.58
2023-05-20T16:55:04.686Z,43.07
2023-05-20T16:57:32.719Z,32.47
2023-05-20T17:00:02.405Z,29.10
2023-05-20T17:02:29.676Z,24.13
2023-05-20T17:04:57.141Z,29.40
2023-05-20T17:07:24.320Z,22.17
2023-05-20T17:09:51.662Z,19.20
2023-05-20T17:12:18.875Z,19.67
2023-05-20T17:14:46.037Z,17.92
2023-05-20T17:17:15.204Z,17.52
2023-05-20T17:19:42.499Z,17.47
2023-05-20T17:22:09.723Z,18.50
2023-05-20T17:24:36.938Z,16.90
2023-05-20T17:27:06.234Z,18.10
2023-05-20T17:35:44.328Z,18.90
2023-05-20T17:38:11.970Z,19.75
2023-05-20T17:40:39.096Z,19.95
2023-05-20T17:43:06.239Z,19.35
2023-05-20T17:45:33.356Z,18.70
2023-05-20T17:48:00.507Z,19.08
2023-05-20T17:50:27.773Z,20.40
2023-05-20T17:52:54.934Z,20.88
2023-05-20T17:55:22.391Z,19.80
2023-05-20T17:57:49.736Z,21.00
2023-05-20T18:00:21.530Z,20.90
2023-05-20T18:02:49.342Z,21.27
2023-05-20T18:05:38.217Z,20.55
2023-05-20T18:08:08.157Z,20.60
2023-05-20T18:10:35.985Z,19.77
2023-05-20T18:13:09.808Z,22.02
2023-05-20T18:15:37.022Z,21.60
2023-05-20T18:18:04.408Z,21.08
2023-05-20T18:20:31.577Z,21.02
2023-05-20T18:22:59.410Z,20.20
2023-05-20T18:25:28.962Z,20.60
2023-05-20T18:27:56.551Z,21.63
2023-05-20T18:30:29.402Z,20.88
2023-05-20T18:32:57.161Z,21.90
2023-05-20T18:35:24.307Z,20.53
2023-05-20T18:37:54.077Z,20.27
2023-05-20T18:40:24.620Z,21.40
2023-05-20T18:42:51.757Z,20.38
2023-05-20T18:45:19.730Z,21.85
2023-05-20T18:47:46.946Z,20.33
2023-05-20T18:50:14.173Z,19.73
2023-05-20T18:52:41.618Z,19.83
2023-05-20T18:55:09.067Z,20.15
2023-05-20T18:57:36.587Z,20.50
2023-05-20T19:00:13.467Z,19.30
2023-05-20T19:02:43.765Z,18.70
2023-05-20T19:05:12.806Z,21.75
2023-05-20T19:07:39.901Z,20.85
2023-05-20T19:10:07.930Z,20.63
2023-05-20T19:12:35.017Z,21.47
2023-05-20T19:15:02.541Z,21.35
2023-05-20T19:17:29.798Z,21.08
2023-05-20T19:19:56.995Z,19.05
2023-05-20T19:22:24.172Z,20.52
2023-05-20T19:24:51.374Z,21.00
2023-05-20T19:27:18.481Z,21.35
2023-05-20T19:29:45.653Z,22.35
2023-05-20T19:32:12.752Z,21.85
2023-05-20T19:34:40.889Z,24.17
2023-05-20T19:37:07.970Z,23.03
2023-05-20T19:39:35.237Z,26.20
2023-05-20T19:42:02.626Z,26.63
2023-05-20T19:44:30.020Z,22.25
2023-05-20T19:46:57.123Z,23.83
2023-05-20T19:49:24.280Z,21.90
2023-05-20T19:51:51.791Z,23.58
2023-05-20T19:54:19.103Z,22.20
2023-05-20T19:56:46.362Z,22.80
2023-05-20T19:59:13.452Z,21.15
2023-05-20T20:01:40.973Z,22.47
2023-05-20T20:04:08.164Z,23.63
2023-05-20T20:06:35.259Z,23.05
2023-05-20T20:09:02.409Z,24.88
2023-05-20T20:11:29.543Z,28.02
2023-05-20T20:13:58.544Z,26.40
2023-05-20T20:16:26.972Z,27.13
2023-05-20T20:18:54.716Z,24.23
2023-05-20T20:21:21.950Z,23.58
2023-05-20T20:23:48.978Z,22.67
2023-05-20T20:26:16.064Z,23.23
2023-05-20T20:28:43.237Z,21.50
2023-05-20T20:34:59.688Z,24.27
2023-05-20T20:37:28.215Z,22.80
2023-05-20T20:39:55.322Z,24.47
2023-05-20T20:42:22.797Z,25.25
2023-05-20T20:44:52.668Z,28.45
2023-05-20T20:47:20.216Z,26.77
2023-05-20T20:49:49.888Z,29.08
2023-05-20T20:52:17.127Z,27.40
2023-05-20T20:54:44.322Z,29.50
2023-05-20T20:57:11.743Z,28.60
2023-05-20T20:59:40.335Z,29.10
2023-05-20T21:02:07.771Z,27.25
2023-05-20T21:04:35.081Z,25.87
2023-05-20T21:07:02.680Z,23.48
2023-05-20T21:09:29.841Z,22.13
2023-05-20T21:11:58.901Z,23.42
2023-05-20T21:14:27.489Z,23.02
2023-05-20T21:16:54.654Z,22.93
2023-05-20T21:19:21.790Z,22.35
2023-05-20T21:21:48.901Z,22.65
2023-05-20T21:24:16.067Z,21.75
2023-05-20T21:26:43.215Z,23.13
2023-05-20T21:29:12.168Z,23.23
2023-05-20T21:31:39.489Z,24.63
2023-05-20T21:34:06.726Z,29.60
2023-05-20T21:36:36.331Z,26.13
2023-05-20T21:39:06.610Z,26.98
2023-05-20T21:41:33.817Z,26.57
2023-05-20T21:44:00.993Z,27.08
2023-05-20T21:46:28.603Z,29.52
2023-05-20T21:48:55.848Z,24.88
2023-05-20T21:51:23.457Z,26.55
2023-05-20T21:53:50.784Z,24.83
2023-05-20T21:56:21.561Z,25.38
2023-05-20T21:58:48.874Z,26.13
2023-05-20T22:01:16.160Z,30.90
2023-05-20T22:03:48.772Z,29.15
2023-05-20T22:06:17.782Z,25.80
2023-05-20T22:08:45.172Z,27.00
2023-05-20T22:11:14.209Z,26.55
2023-05-20T22:13:47.363Z,27.17
2023-05-20T22:16:14.662Z,26.23
2023-05-20T22:18:42.847Z,24.37
2023-05-20T22:21:10.265Z,24.20
2023-05-20T22:23:37.309Z,23.27
2023-05-20T22:26:04.985Z,23.10
2023-05-20T22:28:32.255Z,24.42
2023-05-20T22:30:59.554Z,24.80
2023-05-20T22:33:27.016Z,23.45
2023-05-20T22:35:54.267Z,24.73
2023-05-20T22:38:21.457Z,23.08
2023-05-20T22:40:48.682Z,23.27
2023-05-20T22:43:16.645Z,25.63
2023-05-20T22:45:43.987Z,24.27
2023-05-20T22:48:11.142Z,26.60
2023-05-20T22:50:38.461Z,23.98
2023-05-20T22:53:06.140Z,24.40
2023-05-20T22:55:33.731Z,25.13
2023-05-20T22:58:08.142Z,24.63
2023-05-20T23:00:35.751Z,26.02
2023-05-20T23:03:05.904Z,26.45
2023-05-20T23:05:33.190Z,25.48
2023-05-20T23:08:00.386Z,26.37
2023-05-20T23:10:27.743Z,26.17
2023-05-20T23:12:54.932Z,24.60
2023-05-20T23:15:25.369Z,24.70
2023-05-20T23:17:52.817Z,23.67
2023-05-20T23:20:22.270Z,24.17
2023-05-20T23:22:49.972Z,24.88
2023-05-20T23:25:17.355Z,25.63
2023-05-20T23:27:44.544Z,23.33
2023-05-20T23:30:11.916Z,26.45
2023-05-20T23:32:39.094Z,26.00
2023-05-20T23:35:06.852Z,24.45
2023-05-20T23:37:37.286Z,23.20
2023-05-20T23:40:09.272Z,24.42
2023-05-20T23:42:36.878Z,23.38
2023-05-20T23:45:07.388Z,24.73
2023-05-20T23:47:36.448Z,24.33
2023-05-20T23:50:06.839Z,23.77
2023-05-20T23:52:33.963Z,22.25
2023-05-20T23:55:01.183Z,25.23
2023-05-20T23:57:28.386Z,21.40
2023-05-20T23:59:55.641Z,26.08
